sensor_id;sensor_type;location;lat;lon;timestamp;P1;durP1;ratioP1;P2;durP2;ratioP2
22250;SDS011;59348;52.158;5.588;2022-12-18T00:02:23;85.18;;;33.72;;
22250;SDS011;59348;52.158;5.588;2022-12-18T00:04:50;82.32;;;34.38;;
22250;SDS011;59348;52.158;5.588;2022-12-18T00:07:18;79.88;;;34.63;;
22250;SDS011;59348;52.158;5.588;2022-12-18T00:09:46;83.45;;;34.97;;
22250;SDS011;59348;52.158;5.588;2022-12-18T00:12:14;80.45;;;33.38;;
22250;SDS011;59348;52.158;5.588;2022-12-18T00:14:41;82.18;;;33.83;;
22250;SDS011;59348;52.158;5.588;2022-12-18T00:17:09;84.80;;;34.13;;
22250;SDS011;59348;52.158;5.588;2022-12-18T00:19:36;78.45;;;32.25;;
22250;SDS011;59348;52.158;5.588;2022-12-18T00:22:04;70.68;;;31.38;;
22250;SDS011;59348;52.158;5.588;2022-12-18T00:24:32;82.82;;;33.00;;
22250;SDS011;59348;52.158;5.588;2022-12-18T00:27:01;72.47;;;31.98;;
22250;SDS011;59348;52.158;5.588;2022-12-18T00:29:28;76.63;;;32.80;;
22250;SDS011;59348;52.158;5.588;2022-12-18T00:31:56;75.57;;;31.92;;
22250;SDS011;59348;52.158;5.588;2022-12-18T00:34:23;77.10;;;31.92;;
22250;SDS011;59348;52.158;5.588;2022-12-18T00:36:50;78.40;;;31.58;;
22250;SDS011;59348;52.158;5.588;2022-12-18T00:39:18;77.68;;;31.88;;
22250;SDS011;59348;52.158;5.588;2022-12-18T00:41:46;74.00;;;31.48;;
22250;SDS011;59348;52.158;5.588;2022-12-18T00:44:28;76.80;;;31.75;;
22250;SDS011;59348;52.158;5.588;2022-12-18T00:46:55;82.88;;;32.58;;
22250;SDS011;59348;52.158;5.588;2022-12-18T00:49:23;85.72;;;33.28;;
22250;SDS011;59348;52.158;5.588;2022-12-18T00:51:50;81.07;;;33.17;;
22250;SDS011;59348;52.158;5.588;2022-12-18T00:54:17;78.38;;;32.13;;
22250;SDS011;59348;52.158;5.588;2022-12-18T00:56:45;78.55;;;30.90;;
22250;SDS011;59348;52.158;5.588;2022-12-18T00:59:12;76.72;;;31.27;;
22250;SDS011;59348;52.158;5.588;2022-12-18T01:01:41;74.63;;;32.67;;
22250;SDS011;59348;52.158;5.588;2022-12-18T01:04:08;75.75;;;31.67;;
22250;SDS011;59348;52.158;5.588;2022-12-18T01:06:36;73.35;;;30.88;;
22250;SDS011;59348;52.158;5.588;2022-12-18T01:09:03;72.97;;;30.33;;
22250;SDS011;59348;52.158;5.588;2022-12-18T01:11:31;75.07;;;29.27;;
22250;SDS011;59348;52.158;5.588;2022-12-18T01:13:58;76.05;;;30.42;;
22250;SDS011;59348;52.158;5.588;2022-12-18T01:16:26;73.95;;;30.55;;
22250;SDS011;59348;52.158;5.588;2022-12-18T01:18:55;72.22;;;29.50;;
22250;SDS011;59348;52.158;5.588;2022-12-18T01:21:22;74.25;;;30.20;;
22250;SDS011;59348;52.158;5.588;2022-12-18T01:23:51;70.68;;;29.50;;
22250;SDS011;59348;52.158;5.588;2022-12-18T01:26:19;78.63;;;29.15;;
22250;SDS011;59348;52.158;5.588;2022-12-18T01:28:46;74.82;;;29.30;;
22250;SDS011;59348;52.158;5.588;2022-12-18T01:31:15;66.47;;;28.30;;
22250;SDS011;59348;52.158;5.588;2022-12-18T01:33:43;60.70;;;26.35;;
22250;SDS011;59348;52.158;5.588;2022-12-18T01:36:20;67.82;;;27.65;;
22250;SDS011;59348;52.158;5.588;2022-12-18T01:38:48;65.72;;;28.05;;
22250;SDS011;59348;52.158;5.588;2022-12-18T01:41:16;65.43;;;27.80;;
22250;SDS011;59348;52.158;5.588;2022-12-18T01:43:45;71.10;;;28.65;;
22250;SDS011;59348;52.158;5.588;2022-12-18T01:46:13;66.90;;;27.98;;
22250;SDS011;59348;52.158;5.588;2022-12-18T01:48:40;67.35;;;26.90;;
22250;SDS011;59348;52.158;5.588;2022-12-18T01:51:09;61.75;;;26.25;;
22250;SDS011;59348;52.158;5.588;2022-12-18T01:53:38;67.60;;;27.52;;
22250;SDS011;59348;52.158;5.588;2022-12-18T01:56:07;57.33;;;25.35;;
22250;SDS011;59348;52.158;5.588;2022-12-18T01:58:36;56.88;;;26.02;;
22250;SDS011;59348;52.158;5.588;2022-12-18T02:01:06;60.63;;;25.90;;
22250;SDS011;59348;52.158;5.588;2022-12-18T02:03:34;63.15;;;26.67;;
22250;SDS011;59348;52.158;5.588;2022-12-18T02:06:04;67.80;;;27.92;;
22250;SDS011;59348;52.158;5.588;2022-12-18T02:08:34;62.90;;;26.80;;
22250;SDS011;59348;52.158;5.588;2022-12-18T02:11:05;65.03;;;26.42;;
22250;SDS011;59348;52.158;5.588;2022-12-18T02:13:36;65.00;;;27.13;;
22250;SDS011;59348;52.158;5.588;2022-12-18T02:16:07;62.97;;;25.27;;
22250;SDS011;59348;52.158;5.588;2022-12-18T02:18:37;55.88;;;24.40;;
22250;SDS011;59348;52.158;5.588;2022-12-18T02:21:08;58.92;;;26.73;;
22250;SDS011;59348;52.158;5.588;2022-12-18T02:23:41;56.38;;;24.92;;
22250;SDS011;59348;52.158;5.588;2022-12-18T02:26:17;61.15;;;26.45;;
22250;SDS011;59348;52.158;5.588;2022-12-18T02:28:47;55.17;;;24.58;;
22250;SDS011;59348;52.158;5.588;2022-12-18T02:31:17;60.97;;;26.13;;
22250;SDS011;59348;52.158;5.588;2022-12-18T02:33:45;69.50;;;26.48;;
22250;SDS011;59348;52.158;5.588;2022-12-18T02:36:13;62.65;;;25.98;;
22250;SDS011;59348;52.158;5.588;2022-12-18T02:38:41;61.80;;;25.48;;
22250;SDS011;59348;52.158;5.588;2022-12-18T02:41:09;64.90;;;27.50;;
22250;SDS011;59348;52.158;5.588;2022-12-18T02:43:38;58.90;;;25.92;;
22250;SDS011;59348;52.158;5.588;2022-12-18T02:46:20;63.58;;;26.50;;
22250;SDS011;59348;52.158;5.588;2022-12-18T02:48:50;67.68;;;27.38;;
22250;SDS011;59348;52.158;5.588;2022-12-18T02:51:21;57.90;;;26.08;;
22250;SDS011;59348;52.158;5.588;2022-12-18T02:53:51;60.25;;;24.98;;
22250;SDS011;59348;52.158;5.588;2022-12-18T02:56:21;58.17;;;24.88;;
22250;SDS011;59348;52.158;5.588;2022-12-18T02:58:53;58.47;;;25.75;;
22250;SDS011;59348;52.158;5.588;2022-12-18T03:01:24;55.22;;;24.23;;
22250;SDS011;59348;52.158;5.588;2022-12-18T03:03:55;59.30;;;24.25;;
22250;SDS011;59348;52.158;5.588;2022-12-18T03:06:25;59.00;;;24.50;;
22250;SDS011;59348;52.158;5.588;2022-12-18T03:08:56;54.55;;;23.63;;
22250;SDS011;59348;52.158;5.588;2022-12-18T03:11:25;53.03;;;24.08;;
22250;SDS011;59348;52.158;5.588;2022-12-18T03:14:09;55.53;;;24.98;;
22250;SDS011;59348;52.158;5.588;2022-12-18T03:16:37;56.72;;;24.08;;
22250;SDS011;59348;52.158;5.588;2022-12-18T03:19:07;52.67;;;24.02;;
22250;SDS011;59348;52.158;5.588;2022-12-18T03:21:36;49.35;;;22.08;;
22250;SDS011;59348;52.158;5.588;2022-12-18T03:24:04;51.63;;;22.65;;
22250;SDS011;59348;52.158;5.588;2022-12-18T03:26:33;50.72;;;21.50;;
22250;SDS011;59348;52.158;5.588;2022-12-18T03:29:02;49.17;;;22.15;;
22250;SDS011;59348;52.158;5.588;2022-12-18T03:31:33;44.53;;;21.30;;
22250;SDS011;59348;52.158;5.588;2022-12-18T03:34:01;52.40;;;22.02;;
22250;SDS011;59348;52.158;5.588;2022-12-18T03:36:29;49.13;;;21.65;;
22250;SDS011;59348;52.158;5.588;2022-12-18T03:38:57;49.13;;;21.67;;
22250;SDS011;59348;52.158;5.588;2022-12-18T03:41:27;51.30;;;21.92;;
22250;SDS011;59348;52.158;5.588;2022-12-18T03:43:57;52.47;;;23.23;;
22250;SDS011;59348;52.158;5.588;2022-12-18T03:46:27;50.55;;;22.77;;
22250;SDS011;59348;52.158;5.588;2022-12-18T03:48:59;56.67;;;23.77;;
22250;SDS011;59348;52.158;5.588;2022-12-18T03:51:28;51.05;;;21.95;;
22250;SDS011;59348;52.158;5.588;2022-12-18T03:53:58;50.58;;;21.33;;
22250;SDS011;59348;52.158;5.588;2022-12-18T03:56:28;51.70;;;22.08;;
22250;SDS011;59348;52.158;5.588;2022-12-18T03:58:56;45.83;;;20.63;;
22250;SDS011;59348;52.158;5.588;2022-12-18T04:01:25;46.17;;;21.58;;
22250;SDS011;59348;52.158;5.588;2022-12-18T04:03:55;47.50;;;20.27;;
22250;SDS011;59348;52.158;5.588;2022-12-18T04:06:25;45.88;;;21.08;;
22250;SDS011;59348;52.158;5.588;2022-12-18T04:08:53;44.13;;;21.33;;
22250;SDS011;59348;52.158;5.588;2022-12-18T04:11:20;45.28;;;21.23;;
22250;SDS011;59348;52.158;5.588;2022-12-18T04:13:48;47.25;;;21.05;;
22250;SDS011;59348;52.158;5.588;2022-12-18T04:16:15;42.20;;;19.90;;
22250;SDS011;59348;52.158;5.588;2022-12-18T04:18:43;47.42;;;21.42;;
22250;SDS011;59348;52.158;5.588;2022-12-18T04:21:10;43.53;;;20.38;;
22250;SDS011;59348;52.158;5.588;2022-12-18T04:23:39;39.95;;;19.63;;
22250;SDS011;59348;52.158;5.588;2022-12-18T04:26:06;41.97;;;19.33;;
22250;SDS011;59348;52.158;5.588;2022-12-18T04:28:34;40.05;;;18.70;;
22250;SDS011;59348;52.158;5.588;2022-12-18T04:31:01;42.25;;;18.05;;
22250;SDS011;59348;52.158;5.588;2022-12-18T04:33:29;44.53;;;18.73;;
22250;SDS011;59348;52.158;5.588;2022-12-18T04:35:56;38.00;;;17.65;;
22250;SDS011;59348;52.158;5.588;2022-12-18T04:38:23;37.30;;;18.20;;
22250;SDS011;59348;52.158;5.588;2022-12-18T04:40:52;33.60;;;16.83;;
22250;SDS011;59348;52.158;5.588;2022-12-18T04:43:20;34.15;;;16.92;;
22250;SDS011;59348;52.158;5.588;2022-12-18T04:45:47;36.20;;;17.23;;
22250;SDS011;59348;52.158;5.588;2022-12-18T04:48:15;38.65;;;17.33;;
22250;SDS011;59348;52.158;5.588;2022-12-18T04:50:42;35.92;;;16.50;;
22250;SDS011;59348;52.158;5.588;2022-12-18T04:53:10;33.95;;;15.85;;
22250;SDS011;59348;52.158;5.588;2022-12-18T04:55:37;37.38;;;16.52;;
22250;SDS011;59348;52.158;5.588;2022-12-18T04:58:06;31.83;;;15.98;;
22250;SDS011;59348;52.158;5.588;2022-12-18T05:00:33;35.60;;;15.93;;
22250;SDS011;59348;52.158;5.588;2022-12-18T05:03:01;34.90;;;16.33;;
22250;SDS011;59348;52.158;5.588;2022-12-18T05:05:28;34.33;;;14.75;;
22250;SDS011;59348;52.158;5.588;2022-12-18T05:07:56;31.60;;;14.68;;
22250;SDS011;59348;52.158;5.588;2022-12-18T05:10:23;35.22;;;15.52;;
22250;SDS011;59348;52.158;5.588;2022-12-18T05:12:51;34.15;;;16.27;;
22250;SDS011;59348;52.158;5.588;2022-12-18T05:15:27;36.17;;;15.68;;
22250;SDS011;59348;52.158;5.588;2022-12-18T05:17:55;33.63;;;16.17;;
22250;SDS011;59348;52.158;5.588;2022-12-18T05:20:23;34.05;;;15.85;;
22250;SDS011;59348;52.158;5.588;2022-12-18T05:22:51;30.20;;;15.02;;
22250;SDS011;59348;52.158;5.588;2022-12-18T05:25:20;32.50;;;15.23;;
22250;SDS011;59348;52.158;5.588;2022-12-18T05:27:47;32.65;;;15.70;;
22250;SDS011;59348;52.158;5.588;2022-12-18T05:30:15;31.85;;;15.75;;
22250;SDS011;59348;52.158;5.588;2022-12-18T05:32:44;28.52;;;15.50;;
22250;SDS011;59348;52.158;5.588;2022-12-18T05:35:11;33.05;;;15.52;;
22250;SDS011;59348;52.158;5.588;2022-12-18T05:37:39;32.65;;;15.15;;
22250;SDS011;59348;52.158;5.588;2022-12-18T05:40:07;34.90;;;14.85;;
22250;SDS011;59348;52.158;5.588;2022-12-18T05:42:34;33.05;;;14.57;;
22250;SDS011;59348;52.158;5.588;2022-12-18T05:45:02;30.45;;;14.15;;
22250;SDS011;59348;52.158;5.588;2022-12-18T05:47:30;27.88;;;14.07;;
22250;SDS011;59348;52.158;5.588;2022-12-18T05:49:59;31.05;;;14.27;;
22250;SDS011;59348;52.158;5.588;2022-12-18T05:52:27;33.78;;;14.50;;
22250;SDS011;59348;52.158;5.588;2022-12-18T05:54:54;28.30;;;13.25;;
22250;SDS011;59348;52.158;5.588;2022-12-18T05:57:22;29.27;;;13.43;;
22250;SDS011;59348;52.158;5.588;2022-12-18T05:59:49;25.33;;;13.00;;
22250;SDS011;59348;52.158;5.588;2022-12-18T06:02:17;27.65;;;13.45;;
22250;SDS011;59348;52.158;5.588;2022-12-18T06:04:46;31.50;;;12.45;;
22250;SDS011;59348;52.158;5.588;2022-12-18T06:07:14;26.50;;;12.98;;
22250;SDS011;59348;52.158;5.588;2022-12-18T06:09:42;27.67;;;12.38;;
22250;SDS011;59348;52.158;5.588;2022-12-18T06:12:10;25.52;;;12.07;;
22250;SDS011;59348;52.158;5.588;2022-12-18T06:14:37;26.98;;;12.30;;
22250;SDS011;59348;52.158;5.588;2022-12-18T06:17:06;24.15;;;12.40;;
22250;SDS011;59348;52.158;5.588;2022-12-18T06:19:33;23.48;;;12.10;;
22250;SDS011;59348;52.158;5.588;2022-12-18T06:22:00;24.85;;;11.15;;
22250;SDS011;59348;52.158;5.588;2022-12-18T06:24:29;26.63;;;11.80;;
22250;SDS011;59348;52.158;5.588;2022-12-18T06:26:56;23.85;;;12.23;;
22250;SDS011;59348;52.158;5.588;2022-12-18T06:29:24;25.65;;;12.15;;
22250;SDS011;59348;52.158;5.588;2022-12-18T06:31:52;26.45;;;12.65;;
22250;SDS011;59348;52.158;5.588;2022-12-18T06:34:19;23.73;;;12.48;;
22250;SDS011;59348;52.158;5.588;2022-12-18T06:36:47;26.13;;;12.38;;
22250;SDS011;59348;52.158;5.588;2022-12-18T06:39:14;22.25;;;11.85;;
22250;SDS011;59348;52.158;5.588;2022-12-18T06:41:43;23.95;;;12.75;;
22250;SDS011;59348;52.158;5.588;2022-12-18T06:44:10;25.08;;;12.60;;
22250;SDS011;59348;52.158;5.588;2022-12-18T06:46:37;23.17;;;12.98;;
22250;SDS011;59348;52.158;5.588;2022-12-18T06:49:05;22.90;;;12.00;;
22250;SDS011;59348;52.158;5.588;2022-12-18T06:51:34;24.42;;;12.30;;
22250;SDS011;59348;52.158;5.588;2022-12-18T06:54:01;21.85;;;12.00;;
22250;SDS011;59348;52.158;5.588;2022-12-18T06:56:29;25.33;;;12.27;;
22250;SDS011;59348;52.158;5.588;2022-12-18T06:58:58;19.25;;;11.15;;
22250;SDS011;59348;52.158;5.588;2022-12-18T07:01:25;23.85;;;11.05;;
22250;SDS011;59348;52.158;5.588;2022-12-18T07:03:53;23.98;;;11.65;;
22250;SDS011;59348;52.158;5.588;2022-12-18T07:06:21;27.77;;;12.20;;
22250;SDS011;59348;52.158;5.588;2022-12-18T07:08:49;23.00;;;11.73;;
22250;SDS011;59348;52.158;5.588;2022-12-18T07:11:17;24.77;;;12.18;;
22250;SDS011;59348;52.158;5.588;2022-12-18T07:13:45;23.15;;;11.95;;
22250;SDS011;59348;52.158;5.588;2022-12-18T07:16:14;22.20;;;11.52;;
22250;SDS011;59348;52.158;5.588;2022-12-18T07:18:42;20.23;;;11.38;;
22250;SDS011;59348;52.158;5.588;2022-12-18T07:21:10;23.98;;;12.05;;
22250;SDS011;59348;52.158;5.588;2022-12-18T07:23:37;22.25;;;12.13;;
22250;SDS011;59348;52.158;5.588;2022-12-18T07:26:06;27.90;;;12.02;;
22250;SDS011;59348;52.158;5.588;2022-12-18T07:28:34;23.08;;;12.27;;
22250;SDS011;59348;52.158;5.588;2022-12-18T07:31:02;22.20;;;11.82;;
22250;SDS011;59348;52.158;5.588;2022-12-18T07:33:32;21.90;;;12.13;;
22250;SDS011;59348;52.158;5.588;2022-12-18T07:36:00;23.70;;;11.77;;
22250;SDS011;59348;52.158;5.588;2022-12-18T07:38:28;24.48;;;12.43;;
22250;SDS011;59348;52.158;5.588;2022-12-18T07:40:59;23.80;;;12.45;;
22250;SDS011;59348;52.158;5.588;2022-12-18T07:43:27;25.63;;;12.60;;
22250;SDS011;59348;52.158;5.588;2022-12-18T07:45:55;20.10;;;11.85;;
22250;SDS011;59348;52.158;5.588;2022-12-18T07:48:22;26.95;;;13.13;;
22250;SDS011;59348;52.158;5.588;2022-12-18T07:50:51;25.15;;;12.27;;
22250;SDS011;59348;52.158;5.588;2022-12-18T07:53:18;20.55;;;11.93;;
22250;SDS011;59348;52.158;5.588;2022-12-18T07:55:45;22.98;;;12.30;;
22250;SDS011;59348;52.158;5.588;2022-12-18T07:58:13;23.40;;;12.10;;
22250;SDS011;59348;52.158;5.588;2022-12-18T08:00:40;25.45;;;13.15;;
22250;SDS011;59348;52.158;5.588;2022-12-18T08:03:07;23.05;;;12.82;;
22250;SDS011;59348;52.158;5.588;2022-12-18T08:05:34;20.23;;;12.13;;
22250;SDS011;59348;52.158;5.588;2022-12-18T08:08:03;22.13;;;12.18;;
22250;SDS011;59348;52.158;5.588;2022-12-18T08:10:30;25.30;;;12.73;;
22250;SDS011;59348;52.158;5.588;2022-12-18T08:12:58;22.38;;;12.95;;
22250;SDS011;59348;52.158;5.588;2022-12-18T08:15:25;23.77;;;12.68;;
22250;SDS011;59348;52.158;5.588;2022-12-18T08:17:54;23.58;;;13.05;;
22250;SDS011;59348;52.158;5.588;2022-12-18T08:20:23;24.27;;;13.15;;
22250;SDS011;59348;52.158;5.588;2022-12-18T08:22:50;26.33;;;12.90;;
22250;SDS011;59348;52.158;5.588;2022-12-18T08:25:18;22.30;;;12.32;;
22250;SDS011;59348;52.158;5.588;2022-12-18T08:27:46;23.05;;;12.35;;
22250;SDS011;59348;52.158;5.588;2022-12-18T08:30:13;22.77;;;12.82;;
22250;SDS011;59348;52.158;5.588;2022-12-18T08:32:40;19.75;;;11.93;;
22250;SDS011;59348;52.158;5.588;2022-12-18T08:35:08;24.65;;;12.48;;
22250;SDS011;59348;52.158;5.588;2022-12-18T08:37:37;22.95;;;11.77;;
22250;SDS011;59348;52.158;5.588;2022-12-18T08:40:04;20.90;;;11.65;;
22250;SDS011;59348;52.158;5.588;2022-12-18T08:42:33;22.23;;;11.95;;
22250;SDS011;59348;52.158;5.588;2022-12-18T08:45:14;21.08;;;12.13;;
22250;SDS011;59348;52.158;5.588;2022-12-18T08:47:42;20.73;;;11.35;;
22250;SDS011;59348;52.158;5.588;2022-12-18T08:50:09;20.63;;;11.35;;
22250;SDS011;59348;52.158;5.588;2022-12-18T08:52:37;22.23;;;11.48;;
22250;SDS011;59348;52.158;5.588;2022-12-18T08:55:04;22.27;;;12.18;;
22250;SDS011;59348;52.158;5.588;2022-12-18T08:57:33;20.73;;;10.75;;
22250;SDS011;59348;52.158;5.588;2022-12-18T09:00:00;18.88;;;10.50;;
22250;SDS011;59348;52.158;5.588;2022-12-18T09:02:28;20.58;;;10.98;;
22250;SDS011;59348;52.158;5.588;2022-12-18T09:04:55;20.05;;;11.52;;
22250;SDS011;59348;52.158;5.588;2022-12-18T09:07:22;21.13;;;11.48;;
22250;SDS011;59348;52.158;5.588;2022-12-18T09:09:50;22.55;;;11.75;;
22250;SDS011;59348;52.158;5.588;2022-12-18T09:12:17;19.95;;;10.88;;
22250;SDS011;59348;52.158;5.588;2022-12-18T09:14:46;18.40;;;11.25;;
22250;SDS011;59348;52.158;5.588;2022-12-18T09:17:13;18.80;;;11.32;;
22250;SDS011;59348;52.158;5.588;2022-12-18T09:19:40;19.58;;;11.43;;
22250;SDS011;59348;52.158;5.588;2022-12-18T09:22:08;19.02;;;10.98;;
22250;SDS011;59348;52.158;5.588;2022-12-18T09:24:35;17.45;;;10.68;;
22250;SDS011;59348;52.158;5.588;2022-12-18T09:27:03;17.60;;;10.48;;
22250;SDS011;59348;52.158;5.588;2022-12-18T09:29:30;18.42;;;10.95;;
22250;SDS011;59348;52.158;5.588;2022-12-18T09:31:59;21.80;;;10.98;;
22250;SDS011;59348;52.158;5.588;2022-12-18T09:34:26;17.80;;;10.10;;
22250;SDS011;59348;52.158;5.588;2022-12-18T09:36:53;18.63;;;10.82;;
22250;SDS011;59348;52.158;5.588;2022-12-18T09:39:21;20.92;;;10.70;;
22250;SDS011;59348;52.158;5.588;2022-12-18T09:41:50;18.50;;;10.00;;
22250;SDS011;59348;52.158;5.588;2022-12-18T09:44:21;17.80;;;9.18;;
22250;SDS011;59348;52.158;5.588;2022-12-18T09:46:50;17.98;;;9.80;;
22250;SDS011;59348;52.158;5.588;2022-12-18T09:49:20;15.82;;;9.77;;
22250;SDS011;59348;52.158;5.588;2022-12-18T09:51:49;17.67;;;9.52;;
22250;SDS011;59348;52.158;5.588;2022-12-18T09:54:18;17.35;;;9.30;;
22250;SDS011;59348;52.158;5.588;2022-12-18T09:56:47;18.35;;;9.38;;
22250;SDS011;59348;52.158;5.588;2022-12-18T09:59:18;18.85;;;9.70;;
22250;SDS011;59348;52.158;5.588;2022-12-18T10:01:47;19.75;;;9.32;;
22250;SDS011;59348;52.158;5.588;2022-12-18T10:04:14;18.23;;;10.00;;
22250;SDS011;59348;52.158;5.588;2022-12-18T10:06:44;18.02;;;9.45;;
22250;SDS011;59348;52.158;5.588;2022-12-18T10:09:15;16.38;;;8.70;;
22250;SDS011;59348;52.158;5.588;2022-12-18T10:11:47;17.38;;;9.07;;
22250;SDS011;59348;52.158;5.588;2022-12-18T10:14:17;18.15;;;9.15;;
22250;SDS011;59348;52.158;5.588;2022-12-18T10:16:49;14.95;;;9.02;;
22250;SDS011;59348;52.158;5.588;2022-12-18T10:19:21;16.42;;;9.00;;
22250;SDS011;59348;52.158;5.588;2022-12-18T10:21:57;16.27;;;9.55;;
22250;SDS011;59348;52.158;5.588;2022-12-18T10:24:31;20.27;;;8.98;;
22250;SDS011;59348;52.158;5.588;2022-12-18T10:27:06;18.83;;;9.25;;
22250;SDS011;59348;52.158;5.588;2022-12-18T10:29:36;14.63;;;9.07;;
22250;SDS011;59348;52.158;5.588;2022-12-18T10:32:03;17.27;;;8.52;;
22250;SDS011;59348;52.158;5.588;2022-12-18T10:34:30;17.65;;;8.60;;
22250;SDS011;59348;52.158;5.588;2022-12-18T10:37:00;16.33;;;8.38;;
22250;SDS011;59348;52.158;5.588;2022-12-18T10:39:28;13.10;;;7.82;;
22250;SDS011;59348;52.158;5.588;2022-12-18T10:41:59;18.92;;;8.98;;
22250;SDS011;59348;52.158;5.588;2022-12-18T10:44:35;15.57;;;9.48;;
22250;SDS011;59348;52.158;5.588;2022-12-18T10:47:03;18.08;;;8.88;;
22250;SDS011;59348;52.158;5.588;2022-12-18T10:49:32;14.43;;;8.35;;
22250;SDS011;59348;52.158;5.588;2022-12-18T10:52:11;15.68;;;8.27;;
22250;SDS011;59348;52.158;5.588;2022-12-18T10:54:45;15.95;;;8.30;;
22250;SDS011;59348;52.158;5.588;2022-12-18T10:57:14;15.45;;;8.23;;
22250;SDS011;59348;52.158;5.588;2022-12-18T10:59:49;15.52;;;8.82;;
22250;SDS011;59348;52.158;5.588;2022-12-18T11:02:24;13.75;;;7.82;;
22250;SDS011;59348;52.158;5.588;2022-12-18T11:04:52;14.55;;;7.95;;
22250;SDS011;59348;52.158;5.588;2022-12-18T11:07:21;13.15;;;7.85;;
22250;SDS011;59348;52.158;5.588;2022-12-18T11:09:59;15.32;;;8.13;;
22250;SDS011;59348;52.158;5.588;2022-12-18T11:12:29;13.43;;;7.72;;
22250;SDS011;59348;52.158;5.588;2022-12-18T11:14:56;14.88;;;7.78;;
22250;SDS011;59348;52.158;5.588;2022-12-18T11:17:27;15.93;;;8.07;;
22250;SDS011;59348;52.158;5.588;2022-12-18T11:19:56;16.75;;;8.68;;
22250;SDS011;59348;52.158;5.588;2022-12-18T11:22:25;13.82;;;8.32;;
22250;SDS011;59348;52.158;5.588;2022-12-18T11:24:54;14.52;;;8.13;;
22250;SDS011;59348;52.158;5.588;2022-12-18T11:27:23;14.70;;;8.40;;
22250;SDS011;59348;52.158;5.588;2022-12-18T11:29:51;15.23;;;8.50;;
22250;SDS011;59348;52.158;5.588;2022-12-18T11:35:03;14.45;;;8.18;;
22250;SDS011;59348;52.158;5.588;2022-12-18T11:37:33;12.90;;;7.97;;
22250;SDS011;59348;52.158;5.588;2022-12-18T11:40:03;16.33;;;8.43;;
22250;SDS011;59348;52.158;5.588;2022-12-18T11:42:35;14.60;;;8.50;;
22250;SDS011;59348;52.158;5.588;2022-12-18T11:45:08;16.20;;;8.52;;
22250;SDS011;59348;52.158;5.588;2022-12-18T11:47:44;13.63;;;8.20;;
22250;SDS011;59348;52.158;5.588;2022-12-18T11:50:14;13.82;;;8.02;;
22250;SDS011;59348;52.158;5.588;2022-12-18T11:52:44;16.85;;;7.97;;
22250;SDS011;59348;52.158;5.588;2022-12-18T11:55:13;15.23;;;8.48;;
22250;SDS011;59348;52.158;5.588;2022-12-18T11:57:44;14.13;;;8.45;;
22250;SDS011;59348;52.158;5.588;2022-12-18T12:00:16;16.27;;;8.70;;
22250;SDS011;59348;52.158;5.588;2022-12-18T12:02:50;15.15;;;8.27;;
22250;SDS011;59348;52.158;5.588;2022-12-18T12:05:27;13.27;;;8.05;;
22250;SDS011;59348;52.158;5.588;2022-12-18T12:07:59;15.20;;;8.50;;
22250;SDS011;59348;52.158;5.588;2022-12-18T12:10:33;15.13;;;8.60;;
22250;SDS011;59348;52.158;5.588;2022-12-18T12:13:07;14.82;;;8.45;;
22250;SDS011;59348;52.158;5.588;2022-12-18T12:15:39;13.35;;;7.78;;
22250;SDS011;59348;52.158;5.588;2022-12-18T12:18:12;13.43;;;8.43;;
22250;SDS011;59348;52.158;5.588;2022-12-18T12:20:44;16.83;;;8.90;;
22250;SDS011;59348;52.158;5.588;2022-12-18T12:23:17;14.82;;;8.82;;
22250;SDS011;59348;52.158;5.588;2022-12-18T12:25:46;14.35;;;8.50;;
22250;SDS011;59348;52.158;5.588;2022-12-18T12:28:19;16.08;;;8.95;;
22250;SDS011;59348;52.158;5.588;2022-12-18T12:30:55;15.05;;;8.88;;
22250;SDS011;59348;52.158;5.588;2022-12-18T12:33:29;15.90;;;8.85;;
22250;SDS011;59348;52.158;5.588;2022-12-18T12:36:03;13.77;;;8.65;;
22250;SDS011;59348;52.158;5.588;2022-12-18T12:38:37;14.73;;;8.60;;
22250;SDS011;59348;52.158;5.588;2022-12-18T12:41:09;17.80;;;9.43;;
22250;SDS011;59348;52.158;5.588;2022-12-18T12:43:59;16.00;;;9.00;;
22250;SDS011;59348;52.158;5.588;2022-12-18T12:46:27;14.88;;;9.00;;
22250;SDS011;59348;52.158;5.588;2022-12-18T12:48:59;14.95;;;8.85;;
22250;SDS011;59348;52.158;5.588;2022-12-18T12:51:27;18.17;;;9.23;;
22250;SDS011;59348;52.158;5.588;2022-12-18T12:53:57;14.48;;;8.93;;
22250;SDS011;59348;52.158;5.588;2022-12-18T12:56:26;19.00;;;9.85;;
22250;SDS011;59348;52.158;5.588;2022-12-18T12:58:56;18.58;;;9.73;;
22250;SDS011;59348;52.158;5.588;2022-12-18T13:01:28;20.48;;;9.48;;
22250;SDS011;59348;52.158;5.588;2022-12-18T13:04:02;16.42;;;8.98;;
22250;SDS011;59348;52.158;5.588;2022-12-18T13:06:34;15.23;;;8.75;;
22250;SDS011;59348;52.158;5.588;2022-12-18T13:09:04;15.02;;;8.95;;
22250;SDS011;59348;52.158;5.588;2022-12-18T13:11:35;14.90;;;9.65;;
22250;SDS011;59348;52.158;5.588;2022-12-18T13:14:20;14.70;;;8.90;;
22250;SDS011;59348;52.158;5.588;2022-12-18T13:16:47;19.10;;;9.20;;
22250;SDS011;59348;52.158;5.588;2022-12-18T13:19:20;15.70;;;9.60;;
22250;SDS011;59348;52.158;5.588;2022-12-18T13:21:52;16.90;;;9.38;;
22250;SDS011;59348;52.158;5.588;2022-12-18T13:24:24;16.48;;;9.07;;
22250;SDS011;59348;52.158;5.588;2022-12-18T13:26:53;15.85;;;9.48;;
22250;SDS011;59348;52.158;5.588;2022-12-18T13:32:03;17.55;;;9.18;;
22250;SDS011;59348;52.158;5.588;2022-12-18T13:34:30;15.30;;;8.90;;
22250;SDS011;59348;52.158;5.588;2022-12-18T13:39:42;16.10;;;9.50;;
22250;SDS011;59348;52.158;5.588;2022-12-18T13:47:47;14.98;;;8.90;;
22250;SDS011;59348;52.158;5.588;2022-12-18T13:50:20;15.98;;;9.02;;
22250;SDS011;59348;52.158;5.588;2022-12-18T13:52:49;14.18;;;8.60;;
22250;SDS011;59348;52.158;5.588;2022-12-18T13:55:19;15.70;;;9.18;;
22250;SDS011;59348;52.158;5.588;2022-12-18T13:57:48;15.35;;;8.63;;
22250;SDS011;59348;52.158;5.588;2022-12-18T14:00:22;16.63;;;9.43;;
22250;SDS011;59348;52.158;5.588;2022-12-18T14:02:51;15.90;;;9.35;;
22250;SDS011;59348;52.158;5.588;2022-12-18T14:05:21;17.95;;;9.07;;
22250;SDS011;59348;52.158;5.588;2022-12-18T14:07:49;16.00;;;9.13;;
22250;SDS011;59348;52.158;5.588;2022-12-18T14:10:18;17.50;;;9.85;;
22250;SDS011;59348;52.158;5.588;2022-12-18T14:12:46;17.67;;;10.05;;
22250;SDS011;59348;52.158;5.588;2022-12-18T14:15:30;15.57;;;9.75;;
22250;SDS011;59348;52.158;5.588;2022-12-18T14:17:59;14.75;;;8.75;;
22250;SDS011;59348;52.158;5.588;2022-12-18T14:20:29;16.00;;;9.48;;
22250;SDS011;59348;52.158;5.588;2022-12-18T14:22:58;15.82;;;9.55;;
22250;SDS011;59348;52.158;5.588;2022-12-18T14:25:27;16.58;;;9.75;;
22250;SDS011;59348;52.158;5.588;2022-12-18T14:28:02;18.05;;;9.68;;
22250;SDS011;59348;52.158;5.588;2022-12-18T14:30:30;17.55;;;9.20;;
22250;SDS011;59348;52.158;5.588;2022-12-18T14:33:00;16.73;;;9.48;;
22250;SDS011;59348;52.158;5.588;2022-12-18T14:35:28;16.02;;;9.52;;
22250;SDS011;59348;52.158;5.588;2022-12-18T14:38:08;15.73;;;9.23;;
22250;SDS011;59348;52.158;5.588;2022-12-18T14:40:37;19.73;;;10.02;;
22250;SDS011;59348;52.158;5.588;2022-12-18T14:43:08;20.02;;;9.52;;
22250;SDS011;59348;52.158;5.588;2022-12-18T14:45:36;15.27;;;9.55;;
22250;SDS011;59348;52.158;5.588;2022-12-18T14:48:06;16.25;;;9.68;;
22250;SDS011;59348;52.158;5.588;2022-12-18T14:50:34;19.38;;;10.23;;
22250;SDS011;59348;52.158;5.588;2022-12-18T14:53:01;16.90;;;9.45;;